Bouton, Iowa
Current Conditions -  °F | °C
As of 10:15 AM on Friday 19 Dec 2014 (Local Time) from KPRO Reporting Station
Haze Haze  
Wind Chill: 24°   Ceiling: 3000
Heat Index: 31°   Visibility: 4mi
Dew Point: 30°   Wind: 7mph
Humidity: 98%   Direction: 170°S
Pressure: 30.26"   Gusts: NA
Location:  41.85°N, 94.01°W
Report Text: KPRO 191615Z AUTO 17006KT 4SM BR SCT006 SCT017 OVC030 M01/M01 A3026 RMK AO2 T10071010
Loading
Personal Weather Stations






























Interactive Weather Map New forecast layout! Learn more

10-Day Weather Forecast

Advertisements
Track Severe Weather on mobile